createdAt,value
2017-12-11T00:00:18.910Z,1.50
2017-12-11T00:02:44.901Z,1.50
2017-12-11T00:05:10.916Z,1.50
2017-12-11T00:07:37.087Z,1.60
2017-12-11T00:10:03.056Z,1.60
2017-12-11T00:12:29.066Z,1.50
2017-12-11T00:14:55.255Z,1.60
2017-12-11T00:17:21.244Z,1.60
2017-12-11T00:19:47.219Z,1.70
2017-12-11T00:22:13.937Z,1.60
2017-12-11T00:24:39.916Z,1.60
2017-12-11T00:27:05.876Z,1.70
2017-12-11T00:29:32.016Z,1.70
2017-12-11T00:31:58.761Z,1.50
2017-12-11T00:34:25.460Z,1.60
2017-12-11T00:36:51.720Z,1.60
2017-12-11T00:39:18.726Z,1.60
2017-12-11T00:41:44.713Z,1.60
2017-12-11T00:44:10.685Z,1.70
2017-12-11T00:46:36.688Z,1.60
2017-12-11T00:49:02.954Z,1.70
2017-12-11T00:51:29.666Z,1.40
2017-12-11T00:53:55.640Z,1.40
2017-12-11T00:56:21.636Z,1.50
2017-12-11T00:58:48.351Z,1.80
2017-12-11T01:01:15.094Z,1.70
2017-12-11T01:03:41.084Z,1.70
2017-12-11T01:06:07.052Z,1.70
2017-12-11T01:08:33.792Z,1.60
2017-12-11T01:11:00.823Z,1.60
2017-12-11T01:13:26.810Z,1.50
2017-12-11T01:15:52.767Z,1.60
2017-12-11T01:18:26.776Z,1.60
2017-12-11T01:20:53.481Z,1.70
2017-12-11T01:23:19.445Z,1.60
2017-12-11T01:25:46.472Z,1.70
2017-12-11T01:28:12.456Z,1.70
2017-12-11T01:30:38.424Z,1.70
2017-12-11T01:33:05.164Z,1.60
2017-12-11T01:35:31.880Z,1.70
2017-12-11T01:37:58.235Z,1.60
2017-12-11T01:40:24.937Z,1.70
2017-12-11T01:42:50.916Z,1.70
2017-12-11T01:45:16.992Z,1.80
2017-12-11T01:47:42.971Z,1.80
2017-12-11T01:50:08.949Z,1.70
2017-12-11T01:52:35.973Z,1.80
2017-12-11T01:55:01.947Z,1.80
2017-12-11T01:57:27.952Z,1.80
2017-12-11T01:59:53.953Z,1.90
2017-12-11T02:02:19.895Z,1.80
2017-12-11T02:04:45.836Z,1.70
2017-12-11T02:07:11.860Z,1.80
2017-12-11T02:09:37.827Z,1.80
2017-12-11T02:12:04.546Z,1.70
2017-12-11T02:14:30.530Z,1.70
2017-12-11T02:16:56.472Z,1.70
2017-12-11T02:19:22.854Z,1.70
2017-12-11T02:21:49.585Z,1.80
2017-12-11T02:24:16.293Z,1.80
2017-12-11T02:26:42.292Z,1.80
2017-12-11T02:29:08.244Z,1.90
2017-12-11T02:31:34.203Z,1.80
2017-12-11T02:34:00.160Z,1.90
2017-12-11T02:36:26.140Z,1.90
2017-12-11T02:38:52.081Z,1.80
2017-12-11T02:41:18.078Z,1.70
2017-12-11T02:43:44.061Z,1.80
2017-12-11T02:46:10.026Z,1.80
2017-12-11T02:48:36.007Z,1.80
2017-12-11T02:51:01.944Z,1.80
2017-12-11T02:53:35.707Z,1.80
2017-12-11T02:56:01.701Z,1.70
2017-12-11T02:58:27.680Z,1.80
2017-12-11T03:00:54.430Z,1.90
2017-12-11T03:03:21.167Z,1.90
2017-12-11T03:05:47.851Z,1.80
2017-12-11T03:08:13.834Z,1.80
2017-12-11T03:10:39.792Z,1.90
2017-12-11T03:13:05.761Z,1.80
2017-12-11T03:15:32.769Z,2.00
2017-12-11T03:17:58.732Z,2.00
2017-12-11T03:20:25.439Z,1.80
2017-12-11T03:22:51.424Z,1.80
2017-12-11T03:25:17.388Z,2.00
2017-12-11T03:27:43.412Z,1.80
2017-12-11T03:30:10.113Z,1.70
2017-12-11T03:32:36.084Z,1.70
2017-12-11T03:35:02.368Z,1.80
2017-12-11T03:37:28.344Z,1.80
2017-12-11T03:39:54.303Z,1.90
2017-12-11T03:42:20.467Z,1.90
2017-12-11T03:44:47.182Z,1.80
2017-12-11T03:47:13.164Z,1.80
2017-12-11T03:49:39.122Z,1.80
2017-12-11T03:52:05.096Z,1.90
2017-12-11T03:54:31.881Z,1.80
2017-12-11T03:56:57.861Z,1.90
2017-12-11T03:59:23.841Z,1.80
2017-12-11T04:01:50.544Z,1.60
2017-12-11T04:04:16.512Z,1.60
2017-12-11T04:06:43.264Z,1.70
2017-12-11T04:09:09.266Z,1.70
2017-12-11T04:11:35.258Z,1.60
2017-12-11T04:14:01.212Z,1.60
2017-12-11T04:16:27.946Z,1.50
2017-12-11T04:18:54.640Z,1.60
2017-12-11T04:21:20.624Z,1.60
2017-12-11T04:23:46.572Z,1.50
2017-12-11T04:26:12.565Z,1.60
2017-12-11T04:28:38.558Z,1.70
2017-12-11T04:31:05.278Z,1.90
2017-12-11T04:33:31.236Z,1.90
2017-12-11T04:35:57.220Z,1.90
2017-12-11T04:38:23.950Z,1.70
2017-12-11T04:40:49.925Z,1.70
2017-12-11T04:43:15.918Z,1.70
2017-12-11T04:45:42.628Z,1.90
2017-12-11T04:48:08.624Z,1.90
2017-12-11T04:50:34.602Z,1.90
2017-12-11T04:53:00.733Z,1.90
2017-12-11T04:55:26.707Z,1.80
2017-12-11T04:57:52.701Z,1.90
2017-12-11T05:00:18.679Z,2.00
2017-12-11T05:02:45.389Z,2.00
2017-12-11T05:05:11.731Z,2.00
2017-12-11T05:07:38.463Z,2.00
2017-12-11T05:10:04.424Z,2.00
2017-12-11T05:12:30.412Z,1.90
2017-12-11T05:14:57.144Z,1.80
2017-12-11T05:17:23.120Z,1.80
2017-12-11T05:19:49.093Z,1.90
2017-12-11T05:22:15.052Z,1.90
2017-12-11T05:24:41.054Z,1.90
2017-12-11T05:27:07.799Z,2.00
2017-12-11T05:29:33.784Z,2.00
2017-12-11T05:32:00.500Z,2.00
2017-12-11T05:34:33.576Z,2.00
2017-12-11T05:36:59.663Z,1.90
2017-12-11T05:39:26.368Z,1.90
2017-12-11T05:41:52.319Z,1.90
2017-12-11T05:44:18.305Z,1.90
2017-12-11T05:46:44.321Z,1.90
2017-12-11T05:49:10.302Z,2.40
2017-12-11T05:51:36.474Z,2.60
2017-12-11T05:54:02.460Z,2.30
2017-12-11T05:56:28.428Z,2.20
2017-12-11T05:58:55.270Z,1.80
2017-12-11T06:01:21.986Z,1.80
2017-12-11T06:03:48.696Z,1.80
2017-12-11T06:06:14.730Z,1.80
2017-12-11T06:08:40.710Z,2.00
2017-12-11T06:11:06.726Z,1.90
2017-12-11T06:13:33.452Z,1.90
2017-12-11T06:16:00.152Z,2.00
2017-12-11T06:18:26.120Z,2.00
2017-12-11T06:20:52.408Z,2.00
2017-12-11T06:23:19.984Z,2.00
2017-12-11T06:25:45.960Z,2.00
2017-12-11T06:28:11.919Z,2.10
2017-12-11T06:30:38.348Z,2.10
2017-12-11T06:33:04.315Z,2.00
2017-12-11T06:35:30.283Z,2.00
2017-12-11T06:37:56.249Z,2.00
2017-12-11T06:40:22.257Z,2.00
2017-12-11T06:42:48.984Z,2.10
2017-12-11T06:45:16.029Z,2.00
2017-12-11T06:47:42.735Z,2.10
2017-12-11T06:50:08.699Z,2.10
2017-12-11T06:52:34.852Z,2.10
2017-12-11T06:55:00.800Z,2.30
2017-12-11T06:57:26.755Z,2.20
2017-12-11T06:59:53.475Z,2.30
2017-12-11T07:02:19.456Z,2.30
2017-12-11T07:04:45.412Z,2.30
2017-12-11T07:07:11.384Z,2.30
2017-12-11T07:09:37.343Z,2.30
2017-12-11T07:12:03.340Z,2.20
2017-12-11T07:14:29.596Z,2.20
2017-12-11T07:16:55.559Z,2.20
2017-12-11T07:19:21.531Z,2.20
2017-12-11T07:21:47.501Z,2.30
2017-12-11T07:24:13.459Z,2.30
2017-12-11T07:26:39.801Z,2.30
2017-12-11T07:29:05.759Z,2.30
2017-12-11T07:31:31.729Z,2.30
2017-12-11T07:33:57.684Z,2.40
2017-12-11T07:36:24.402Z,2.40
2017-12-11T07:38:50.344Z,2.40
2017-12-11T07:41:17.068Z,2.30
2017-12-11T07:43:43.764Z,2.30
2017-12-11T07:46:09.719Z,2.40
2017-12-11T07:48:35.688Z,2.40
2017-12-11T07:51:01.644Z,2.40
2017-12-11T07:53:27.628Z,2.40
2017-12-11T07:55:53.605Z,2.30
2017-12-11T07:58:19.575Z,2.40
2017-12-11T08:00:45.555Z,2.40
2017-12-11T08:03:12.284Z,2.50
2017-12-11T08:05:38.256Z,2.50
2017-12-11T08:08:04.243Z,2.50
2017-12-11T08:10:30.930Z,2.60
2017-12-11T08:12:56.897Z,2.50
2017-12-11T08:15:23.607Z,2.50
2017-12-11T08:17:49.559Z,2.50
2017-12-11T08:20:16.243Z,2.50
2017-12-11T08:22:42.254Z,2.40
2017-12-11T08:25:08.216Z,2.50
2017-12-11T08:27:34.182Z,2.50
2017-12-11T08:30:00.428Z,2.40
2017-12-11T08:32:26.376Z,2.40
2017-12-11T08:34:52.338Z,2.50
2017-12-11T08:37:18.332Z,2.50
2017-12-11T08:39:45.051Z,2.40
2017-12-11T08:42:11.039Z,2.40
2017-12-11T08:44:37.001Z,2.40
2017-12-11T08:47:02.988Z,2.40
2017-12-11T08:49:29.216Z,2.40
2017-12-11T08:51:55.194Z,2.40
2017-12-11T08:54:21.194Z,2.50
2017-12-11T08:56:47.899Z,2.40
2017-12-11T08:59:13.848Z,2.40
2017-12-11T09:01:39.804Z,2.40
2017-12-11T09:04:05.791Z,2.40
2017-12-11T09:06:32.500Z,2.50
2017-12-11T09:08:58.452Z,2.50
2017-12-11T09:11:25.387Z,2.50
2017-12-11T09:13:51.337Z,2.50
2017-12-11T09:16:17.312Z,2.50
2017-12-11T09:18:43.284Z,2.50
2017-12-11T09:21:09.260Z,2.60
2017-12-11T09:23:36.700Z,2.80
2017-12-11T09:26:02.660Z,2.70
2017-12-11T09:28:28.606Z,2.70
2017-12-11T09:30:54.563Z,2.60
2017-12-11T09:33:20.553Z,2.60
2017-12-11T09:35:46.512Z,2.70
2017-12-11T09:38:12.476Z,2.70
2017-12-11T09:40:38.472Z,2.70
2017-12-11T09:43:05.188Z,2.70
2017-12-11T09:45:31.160Z,2.70
2017-12-11T09:47:57.140Z,2.70
2017-12-11T09:50:23.091Z,2.70
2017-12-11T09:52:49.063Z,2.60
2017-12-11T09:55:15.033Z,2.60
2017-12-11T09:57:41.006Z,2.80
2017-12-11T10:00:06.972Z,2.80
2017-12-11T10:02:32.947Z,2.80
2017-12-11T10:04:58.936Z,2.80
2017-12-11T10:07:24.920Z,2.80
2017-12-11T10:09:51.660Z,2.70
2017-12-11T10:12:17.648Z,2.70
2017-12-11T10:14:43.739Z,2.70
2017-12-11T10:17:09.731Z,2.70
2017-12-11T10:19:35.741Z,2.70
2017-12-11T10:22:02.456Z,2.70
2017-12-11T10:24:28.540Z,2.70
2017-12-11T10:26:54.483Z,2.70
2017-12-11T10:29:20.439Z,2.70
2017-12-11T10:31:47.139Z,2.70
2017-12-11T10:34:13.104Z,2.70
2017-12-11T10:36:39.873Z,2.70
2017-12-11T10:39:05.809Z,2.70
2017-12-11T10:41:31.778Z,2.70
2017-12-11T10:43:58.504Z,2.70
2017-12-11T10:46:25.224Z,2.70
2017-12-11T10:48:52.104Z,2.70
2017-12-11T10:51:18.850Z,2.70
2017-12-11T10:53:44.788Z,2.70
2017-12-11T10:56:10.771Z,2.70
2017-12-11T10:58:38.517Z,2.80
2017-12-11T11:01:04.559Z,2.80
2017-12-11T11:03:31.283Z,2.80
2017-12-11T11:05:57.260Z,2.80
2017-12-11T11:08:23.232Z,2.80
2017-12-11T11:10:49.936Z,2.70
2017-12-11T11:13:15.932Z,2.70
2017-12-11T11:15:41.896Z,2.70
2017-12-11T11:18:07.861Z,2.70
2017-12-11T11:20:33.829Z,2.70
2017-12-11T11:22:59.820Z,2.80
2017-12-11T11:25:25.799Z,2.90
2017-12-11T11:27:52.712Z,2.80
2017-12-11T11:30:18.666Z,2.80
2017-12-11T11:32:45.370Z,2.80
2017-12-11T11:35:11.348Z,2.80
2017-12-11T11:40:04.160Z,2.90
2017-12-11T11:42:30.100Z,2.90
2017-12-11T11:44:56.792Z,2.90
2017-12-11T11:47:22.759Z,2.90
2017-12-11T11:49:49.472Z,2.80
2017-12-11T11:52:15.434Z,2.80
2017-12-11T11:54:41.408Z,2.80
2017-12-11T11:57:07.389Z,2.90
2017-12-11T11:59:33.367Z,2.90
2017-12-11T12:01:59.324Z,2.80
2017-12-11T12:04:25.321Z,2.80
2017-12-11T12:06:52.352Z,2.70
2017-12-11T12:09:18.304Z,2.70
2017-12-11T12:11:44.300Z,2.70
2017-12-11T12:14:11.045Z,2.80
2017-12-11T12:16:36.996Z,2.80
2017-12-11T12:19:02.956Z,2.80
2017-12-11T12:21:28.911Z,2.80
2017-12-11T12:23:55.599Z,2.90
2017-12-11T12:26:21.755Z,2.80
2017-12-11T12:28:47.740Z,2.80
2017-12-11T12:31:13.696Z,2.80
2017-12-11T12:33:39.684Z,2.70
2017-12-11T12:36:05.644Z,2.70
2017-12-11T12:38:32.384Z,2.80
2017-12-11T12:40:59.100Z,2.80
2017-12-11T12:43:25.067Z,2.80
2017-12-11T12:45:51.024Z,2.80
2017-12-11T12:48:17.554Z,2.80
2017-12-11T12:50:43.516Z,2.80
2017-12-11T12:53:09.516Z,2.90
2017-12-11T12:55:36.260Z,3.00
2017-12-11T12:58:02.244Z,3.00
2017-12-11T13:00:28.240Z,2.90
2017-12-11T13:02:54.216Z,2.90
2017-12-11T13:05:20.204Z,2.90
2017-12-11T13:07:46.172Z,2.90
2017-12-11T13:10:12.128Z,2.80
2017-12-11T13:12:38.102Z,2.80
2017-12-11T13:15:04.092Z,2.80
2017-12-11T13:17:30.055Z,2.90
2017-12-11T13:19:56.047Z,2.90
2017-12-11T13:22:23.508Z,2.90
2017-12-11T13:24:49.500Z,2.90
2017-12-11T13:27:15.688Z,3.00
2017-12-11T13:29:41.648Z,2.90
2017-12-11T13:32:07.612Z,2.80
2017-12-11T13:34:33.617Z,2.90
2017-12-11T13:36:59.570Z,2.90
2017-12-11T13:39:25.552Z,2.90
2017-12-11T13:41:51.539Z,2.90
2017-12-11T13:44:17.524Z,2.90
2017-12-11T13:46:43.484Z,2.80
2017-12-11T13:49:09.675Z,2.80
2017-12-11T13:51:35.662Z,2.90
2017-12-11T13:54:01.613Z,2.90
2017-12-11T13:56:27.589Z,3.00
2017-12-11T13:58:53.556Z,2.90
2017-12-11T14:01:19.525Z,2.90
2017-12-11T14:03:45.516Z,2.90
2017-12-11T14:06:12.248Z,2.80
2017-12-11T14:08:38.982Z,2.80
2017-12-11T14:11:05.196Z,2.80
2017-12-11T14:13:31.176Z,2.90
2017-12-11T14:15:57.135Z,2.80
2017-12-11T14:18:23.102Z,2.80
2017-12-11T14:20:49.067Z,2.80
2017-12-11T14:23:15.040Z,2.90
2017-12-11T14:25:41.033Z,2.90
2017-12-11T14:28:06.992Z,2.80
2017-12-11T14:30:32.945Z,2.80
2017-12-11T14:32:58.922Z,2.90
2017-12-11T14:35:24.885Z,2.90
2017-12-11T14:37:50.848Z,2.90
2017-12-11T14:40:17.584Z,2.90
2017-12-11T14:42:44.308Z,2.90
2017-12-11T14:45:10.268Z,2.90
2017-12-11T14:47:36.244Z,3.00
2017-12-11T14:50:02.221Z,3.00
2017-12-11T14:52:28.700Z,3.00
2017-12-11T14:54:55.441Z,2.90
2017-12-11T14:57:21.396Z,2.90
2017-12-11T14:59:47.368Z,3.00
2017-12-11T15:02:13.316Z,3.00
2017-12-11T15:04:40.038Z,3.00
2017-12-11T15:07:06.175Z,2.90
2017-12-11T15:09:32.871Z,2.90
2017-12-11T15:12:05.977Z,2.90
2017-12-11T15:14:31.924Z,2.80
2017-12-11T15:16:58.658Z,2.90
2017-12-11T15:19:25.418Z,2.90
2017-12-11T15:21:52.105Z,2.90
2017-12-11T15:24:18.082Z,2.90
2017-12-11T15:26:44.064Z,3.00
2017-12-11T15:29:10.028Z,3.00
2017-12-11T15:31:36.007Z,2.90
2017-12-11T15:34:02.006Z,2.90
2017-12-11T15:36:27.973Z,2.90
2017-12-11T15:38:54.688Z,2.80
2017-12-11T15:41:20.668Z,2.80
2017-12-11T15:43:46.621Z,2.80
2017-12-11T15:46:12.573Z,2.70
2017-12-11T15:48:39.497Z,2.80
2017-12-11T15:51:05.465Z,2.80
2017-12-11T15:53:31.432Z,2.90
2017-12-11T15:55:57.834Z,2.80
2017-12-11T15:58:23.804Z,2.80
2017-12-11T16:00:50.509Z,2.80
2017-12-11T16:03:16.497Z,2.80
2017-12-11T16:05:42.482Z,2.60
2017-12-11T16:08:09.221Z,2.60
2017-12-11T16:10:36.068Z,2.30
2017-12-11T16:13:02.796Z,2.60
2017-12-11T16:15:29.485Z,2.60
2017-12-11T16:17:56.057Z,2.60
2017-12-11T16:20:22.017Z,2.40
2017-12-11T16:22:47.987Z,2.40
2017-12-11T16:25:13.994Z,2.50
2017-12-11T16:27:39.993Z,2.50
2017-12-11T16:30:06.007Z,2.60
2017-12-11T16:32:32.007Z,2.60
2017-12-11T16:34:58.747Z,2.70
2017-12-11T16:37:25.446Z,2.70
2017-12-11T16:39:51.422Z,2.70
2017-12-11T16:42:17.379Z,2.70
2017-12-11T16:44:43.391Z,2.60
2017-12-11T16:47:09.376Z,2.50
2017-12-11T16:49:36.088Z,2.70
2017-12-11T16:52:02.331Z,2.70
2017-12-11T16:54:29.036Z,2.70
2017-12-11T16:56:55.010Z,2.70
2017-12-11T16:59:20.985Z,2.50
2017-12-11T17:01:46.942Z,2.40
2017-12-11T17:04:13.644Z,2.40
2017-12-11T17:06:39.636Z,2.40
2017-12-11T17:09:05.598Z,2.40
2017-12-11T17:11:31.561Z,2.40
2017-12-11T17:13:57.536Z,2.40
2017-12-11T17:16:23.486Z,2.50
2017-12-11T17:18:50.173Z,2.50
2017-12-11T17:21:16.525Z,2.40
2017-12-11T17:23:42.513Z,2.60
2017-12-11T17:26:08.469Z,2.60
2017-12-11T17:28:36.210Z,2.70
2017-12-11T17:31:02.186Z,2.70
2017-12-11T17:33:28.164Z,2.60
2017-12-11T17:35:54.130Z,2.60
2017-12-11T17:38:20.084Z,2.50
2017-12-11T17:40:46.053Z,2.50
2017-12-11T17:43:13.018Z,2.70
2017-12-11T17:45:38.992Z,2.70
2017-12-11T17:48:04.944Z,2.60
2017-12-11T17:50:31.701Z,2.60
2017-12-11T17:52:57.668Z,2.60
2017-12-11T17:55:23.820Z,2.60
2017-12-11T17:57:50.552Z,2.50
2017-12-11T18:00:16.492Z,2.50
2017-12-11T18:02:43.228Z,2.70
2017-12-11T18:05:09.942Z,2.70
2017-12-11T18:07:35.901Z,2.70
2017-12-11T18:10:02.696Z,2.70
2017-12-11T18:12:28.667Z,2.70
2017-12-11T18:14:54.636Z,2.50
2017-12-11T18:17:20.628Z,2.60
2017-12-11T18:19:46.605Z,2.60
2017-12-11T18:22:13.312Z,2.60
2017-12-11T18:24:39.448Z,2.70
2017-12-11T18:27:06.177Z,2.70
2017-12-11T18:29:32.147Z,2.70
2017-12-11T18:31:58.113Z,2.80
2017-12-11T18:34:24.082Z,2.70
2017-12-11T18:36:50.073Z,2.70
2017-12-11T18:39:16.088Z,2.70
2017-12-11T18:41:43.560Z,2.70
2017-12-11T18:44:10.275Z,2.70
2017-12-11T18:46:36.245Z,2.70
2017-12-11T18:49:02.193Z,2.80
2017-12-11T18:51:29.252Z,2.80
2017-12-11T18:53:55.228Z,2.70
2017-12-11T18:56:21.229Z,2.70
2017-12-11T18:58:47.954Z,2.80
2017-12-11T19:01:13.921Z,2.70
2017-12-11T19:03:39.888Z,2.70
2017-12-11T19:06:05.876Z,2.70
2017-12-11T19:08:31.832Z,2.60
2017-12-11T19:10:57.841Z,2.70
2017-12-11T19:13:23.995Z,2.70
2017-12-11T19:15:49.989Z,2.60
2017-12-11T19:18:15.976Z,2.70
2017-12-11T19:20:41.944Z,2.60
2017-12-11T19:23:07.930Z,2.60
2017-12-11T19:25:33.937Z,2.60
2017-12-11T19:27:59.932Z,2.60
2017-12-11T19:30:25.913Z,2.70
2017-12-11T19:32:51.880Z,2.60
2017-12-11T19:35:18.633Z,2.60
2017-12-11T19:37:44.613Z,2.60
2017-12-11T19:40:10.609Z,2.60
2017-12-11T19:42:36.582Z,2.60
2017-12-11T19:45:03.340Z,2.60
2017-12-11T19:47:36.601Z,2.60
2017-12-11T19:50:03.296Z,2.60
2017-12-11T19:52:29.285Z,2.60
2017-12-11T19:55:02.361Z,2.50
2017-12-11T19:57:29.099Z,2.70
2017-12-11T19:59:55.847Z,2.70
2017-12-11T20:02:21.856Z,2.70
2017-12-11T20:04:49.316Z,2.80
2017-12-11T20:07:16.039Z,2.80
2017-12-11T20:09:42.008Z,2.80
2017-12-11T20:12:07.980Z,2.70
2017-12-11T20:14:33.953Z,2.70
2017-12-11T20:16:59.961Z,2.60
2017-12-11T20:19:25.914Z,2.70
2017-12-11T20:21:51.897Z,2.80
2017-12-11T20:24:17.905Z,2.70
2017-12-11T20:26:43.890Z,2.70
2017-12-11T20:29:09.873Z,2.70
2017-12-11T20:31:35.835Z,2.60
2017-12-11T20:34:02.570Z,2.50
2017-12-11T20:36:28.916Z,2.50
2017-12-11T20:38:54.905Z,2.70
2017-12-11T20:41:20.936Z,2.80
2017-12-11T20:43:46.907Z,2.70
2017-12-11T20:46:12.890Z,2.80
2017-12-11T20:48:38.893Z,2.80
2017-12-11T20:51:04.882Z,2.80
2017-12-11T20:53:30.897Z,2.70
2017-12-11T20:55:56.888Z,2.80
2017-12-11T20:58:22.875Z,2.90
2017-12-11T21:00:49.556Z,2.80
2017-12-11T21:03:16.416Z,2.80
2017-12-11T21:05:42.472Z,2.80
2017-12-11T21:08:08.436Z,2.80
2017-12-11T21:10:34.424Z,2.70
2017-12-11T21:13:00.399Z,2.70
2017-12-11T21:15:26.393Z,2.70
2017-12-11T21:17:52.544Z,2.70
2017-12-11T21:20:19.268Z,2.70
2017-12-11T21:22:46.001Z,2.80
2017-12-11T21:25:12.852Z,2.80
2017-12-11T21:27:39.550Z,2.80
2017-12-11T21:30:05.545Z,2.80
2017-12-11T21:32:31.533Z,2.80
2017-12-11T21:34:58.263Z,2.80
2017-12-11T21:37:24.982Z,2.80
2017-12-11T21:39:51.286Z,2.80
2017-12-11T21:42:17.270Z,2.80
2017-12-11T21:44:43.329Z,2.80
2017-12-11T21:47:09.325Z,2.80
2017-12-11T21:49:35.316Z,2.80
2017-12-11T21:52:02.058Z,2.90
2017-12-11T21:54:28.927Z,2.90
2017-12-11T21:56:54.903Z,2.90
2017-12-11T21:59:20.872Z,3.00
2017-12-11T22:01:46.881Z,3.00
2017-12-11T22:04:13.589Z,3.00
2017-12-11T22:06:40.327Z,2.90
2017-12-11T22:09:06.310Z,2.90
2017-12-11T22:11:32.293Z,2.90
2017-12-11T22:13:59.008Z,2.80
2017-12-11T22:16:24.992Z,2.80
2017-12-11T22:18:50.980Z,2.80
2017-12-11T22:21:17.716Z,2.80
2017-12-11T22:23:44.440Z,2.90
2017-12-11T22:26:10.389Z,2.90
2017-12-11T22:28:36.344Z,3.00
2017-12-11T22:31:02.339Z,2.90
2017-12-11T22:33:28.304Z,2.90
2017-12-11T22:35:54.264Z,2.90
2017-12-11T22:38:20.976Z,2.90
2017-12-11T22:40:46.949Z,2.90
2017-12-11T22:43:13.076Z,2.90
2017-12-11T22:45:39.068Z,2.90
2017-12-11T22:48:05.825Z,2.90
2017-12-11T22:50:31.837Z,2.90
2017-12-11T22:52:57.800Z,3.00
2017-12-11T22:55:23.774Z,3.00
2017-12-11T22:57:50.596Z,2.90
2017-12-11T23:00:25.575Z,3.00
2017-12-11T23:02:51.852Z,2.90
2017-12-11T23:05:17.827Z,2.90
2017-12-11T23:07:43.780Z,2.90
2017-12-11T23:10:09.768Z,2.90
2017-12-11T23:12:35.744Z,2.90
2017-12-11T23:15:02.441Z,2.90
2017-12-11T23:17:28.413Z,2.90
2017-12-11T23:19:55.112Z,2.90
2017-12-11T23:22:21.072Z,2.90
2017-12-11T23:24:47.822Z,2.90
2017-12-11T23:27:13.816Z,2.90
2017-12-11T23:29:39.780Z,3.00
2017-12-11T23:32:05.758Z,3.00
2017-12-11T23:34:31.740Z,3.10
2017-12-11T23:36:57.712Z,3.00
2017-12-11T23:39:24.419Z,3.00
2017-12-11T23:41:50.609Z,3.00
2017-12-11T23:44:16.576Z,3.00
2017-12-11T23:46:42.544Z,3.00
2017-12-11T23:49:08.523Z,2.90
2017-12-11T23:51:34.470Z,2.90
2017-12-11T23:54:12.908Z,3.00
2017-12-11T23:56:38.851Z,3.00
2017-12-11T23:59:04.870Z,3.00
